sensor_id;sensor_type;location;lat;lon;timestamp;pressure;altitude;pressure_sealevel;temperature;humidity
42727;BME280;28372;56.832;60.658;2023-03-14T00:01:09;97244.63;;;2.17;95.00
42727;BME280;28372;56.832;60.658;2023-03-14T00:03:37;97253.66;;;2.25;94.26
42727;BME280;28372;56.832;60.658;2023-03-14T00:06:04;97254.88;;;2.27;94.59
42727;BME280;28372;56.832;60.658;2023-03-14T00:08:32;97254.25;;;2.43;89.21
42727;BME280;28372;56.832;60.658;2023-03-14T00:11:10;97253.94;;;2.44;87.70
42727;BME280;28372;56.832;60.658;2023-03-14T00:13:38;97254.19;;;2.51;86.87
42727;BME280;28372;56.832;60.658;2023-03-14T00:16:06;97254.19;;;2.51;86.14
42727;BME280;28372;56.832;60.658;2023-03-14T00:18:34;97244.81;;;2.57;85.58
42727;BME280;28372;56.832;60.658;2023-03-14T00:21:03;97253.41;;;2.63;84.68
42727;BME280;28372;56.832;60.658;2023-03-14T00:23:31;97251.19;;;2.65;84.53
42727;BME280;28372;56.832;60.658;2023-03-14T00:26:03;97259.75;;;2.71;85.16
42727;BME280;28372;56.832;60.658;2023-03-14T00:28:31;97251.09;;;2.74;86.15
42727;BME280;28372;56.832;60.658;2023-03-14T00:30:58;97256.53;;;2.78;87.33
42727;BME280;28372;56.832;60.658;2023-03-14T00:33:25;97269.00;;;2.86;86.31
42727;BME280;28372;56.832;60.658;2023-03-14T00:35:53;97257.34;;;2.90;85.85
42727;BME280;28372;56.832;60.658;2023-03-14T00:38:21;97269.69;;;2.95;87.41
42727;BME280;28372;56.832;60.658;2023-03-14T00:40:49;97270.09;;;2.97;89.17
42727;BME280;28372;56.832;60.658;2023-03-14T00:43:17;97269.91;;;3.02;90.97
42727;BME280;28372;56.832;60.658;2023-03-14T00:45:45;97272.34;;;3.07;91.75
42727;BME280;28372;56.832;60.658;2023-03-14T00:48:12;97277.03;;;3.11;92.95
42727;BME280;28372;56.832;60.658;2023-03-14T00:50:40;97282.16;;;3.16;94.20
42727;BME280;28372;56.832;60.658;2023-03-14T00:53:08;97283.47;;;3.22;94.87
42727;BME280;28372;56.832;60.658;2023-03-14T00:55:41;97284.78;;;3.28;95.21
42727;BME280;28372;56.832;60.658;2023-03-14T00:58:10;97289.94;;;3.33;96.01
42727;BME280;28372;56.832;60.658;2023-03-14T01:00:38;97292.13;;;3.43;96.02
42727;BME280;28372;56.832;60.658;2023-03-14T01:03:06;97301.38;;;3.46;96.62
42727;BME280;28372;56.832;60.658;2023-03-14T01:05:33;97312.97;;;3.50;97.05
42727;BME280;28372;56.832;60.658;2023-03-14T01:08:01;97302.47;;;3.57;97.02
42727;BME280;28372;56.832;60.658;2023-03-14T01:10:28;97315.63;;;3.63;97.22
42727;BME280;28372;56.832;60.658;2023-03-14T01:12:57;97306.69;;;3.71;97.39
42727;BME280;28372;56.832;60.658;2023-03-14T01:15:24;97316.28;;;3.72;97.38
42727;BME280;28372;56.832;60.658;2023-03-14T01:17:52;97316.72;;;3.74;96.99
42727;BME280;28372;56.832;60.658;2023-03-14T01:20:19;97324.41;;;3.75;96.36
42727;BME280;28372;56.832;60.658;2023-03-14T01:22:47;97331.84;;;3.82;96.23
42727;BME280;28372;56.832;60.658;2023-03-14T01:25:15;97340.00;;;3.86;95.59
42727;BME280;28372;56.832;60.658;2023-03-14T01:27:43;97345.09;;;3.91;95.27
42727;BME280;28372;56.832;60.658;2023-03-14T01:30:11;97340.19;;;3.93;94.81
42727;BME280;28372;56.832;60.658;2023-03-14T01:32:39;97351.78;;;3.97;94.73
42727;BME280;28372;56.832;60.658;2023-03-14T01:35:07;97334.38;;;4.03;92.64
42727;BME280;28372;56.832;60.658;2023-03-14T01:37:34;97350.53;;;4.07;92.40
42727;BME280;28372;56.832;60.658;2023-03-14T01:40:03;97359.44;;;4.11;89.64
42727;BME280;28372;56.832;60.658;2023-03-14T01:42:32;97363.66;;;4.12;89.59
42727;BME280;28372;56.832;60.658;2023-03-14T01:45:00;97370.34;;;4.18;87.18
42727;BME280;28372;56.832;60.658;2023-03-14T01:47:28;97361.44;;;4.14;87.67
42727;BME280;28372;56.832;60.658;2023-03-14T01:50:08;97379.72;;;4.12;87.48
42727;BME280;28372;56.832;60.658;2023-03-14T01:52:43;97366.00;;;4.14;86.49
42727;BME280;28372;56.832;60.658;2023-03-14T01:55:19;97378.72;;;4.17;84.94
42727;BME280;28372;56.832;60.658;2023-03-14T01:57:56;97371.88;;;4.19;83.15
42727;BME280;28372;56.832;60.658;2023-03-14T02:00:25;97392.19;;;4.20;81.42
42727;BME280;28372;56.832;60.658;2023-03-14T02:02:55;97385.38;;;4.23;81.14
42727;BME280;28372;56.832;60.658;2023-03-14T02:05:28;97397.66;;;4.24;79.56
42727;BME280;28372;56.832;60.658;2023-03-14T02:08:05;97391.44;;;4.20;81.33
42727;BME280;28372;56.832;60.658;2023-03-14T02:10:46;97404.00;;;4.19;82.32
42727;BME280;28372;56.832;60.658;2023-03-14T02:13:16;97408.25;;;4.20;83.04
42727;BME280;28372;56.832;60.658;2023-03-14T02:16:15;97415.16;;;4.21;82.56
42727;BME280;28372;56.832;60.658;2023-03-14T02:19:05;97410.94;;;4.20;83.99
42727;BME280;28372;56.832;60.658;2023-03-14T02:22:06;97415.06;;;4.18;84.87
42727;BME280;28372;56.832;60.658;2023-03-14T02:25:04;97411.94;;;4.16;85.96
42727;BME280;28372;56.832;60.658;2023-03-14T02:27:34;97404.94;;;4.11;86.96
42727;BME280;28372;56.832;60.658;2023-03-14T02:30:06;97409.16;;;4.12;87.81
42727;BME280;28372;56.832;60.658;2023-03-14T02:32:35;97409.97;;;4.13;88.22
42727;BME280;28372;56.832;60.658;2023-03-14T02:35:09;97413.06;;;4.15;88.63
42727;BME280;28372;56.832;60.658;2023-03-14T02:37:42;97402.69;;;4.13;89.43
42727;BME280;28372;56.832;60.658;2023-03-14T02:40:12;97420.19;;;4.10;89.27
42727;BME280;28372;56.832;60.658;2023-03-14T02:42:41;97422.13;;;4.10;89.39
42727;BME280;28372;56.832;60.658;2023-03-14T02:47:43;97426.34;;;4.11;90.04
42727;BME280;28372;56.832;60.658;2023-03-14T02:50:15;97434.03;;;4.13;89.95
42727;BME280;28372;56.832;60.658;2023-03-14T02:52:45;97430.22;;;4.14;89.97
42727;BME280;28372;56.832;60.658;2023-03-14T02:55:13;97442.06;;;4.13;90.04
42727;BME280;28372;56.832;60.658;2023-03-14T02:57:44;97447.09;;;4.14;90.40
42727;BME280;28372;56.832;60.658;2023-03-14T03:00:12;97441.81;;;4.18;90.64
42727;BME280;28372;56.832;60.658;2023-03-14T03:02:40;97455.53;;;4.16;90.62
42727;BME280;28372;56.832;60.658;2023-03-14T03:05:07;97450.09;;;4.13;91.08
42727;BME280;28372;56.832;60.658;2023-03-14T03:07:35;97445.63;;;4.17;91.41
42727;BME280;28372;56.832;60.658;2023-03-14T03:10:04;97453.75;;;4.20;90.87
42727;BME280;28372;56.832;60.658;2023-03-14T03:12:31;97460.00;;;4.24;90.96
42727;BME280;28372;56.832;60.658;2023-03-14T03:14:59;97473.03;;;4.26;91.24
42727;BME280;28372;56.832;60.658;2023-03-14T03:17:26;97474.06;;;4.21;90.97
42727;BME280;28372;56.832;60.658;2023-03-14T03:19:53;97476.06;;;4.24;91.18
42727;BME280;28372;56.832;60.658;2023-03-14T03:22:20;97480.72;;;4.27;91.62
42727;BME280;28372;56.832;60.658;2023-03-14T03:24:48;97484.84;;;4.25;91.95
42727;BME280;28372;56.832;60.658;2023-03-14T03:27:15;97483.88;;;4.29;91.59
42727;BME280;28372;56.832;60.658;2023-03-14T03:29:43;97495.47;;;4.34;90.35
42727;BME280;28372;56.832;60.658;2023-03-14T03:32:10;97501.16;;;4.32;88.81
42727;BME280;28372;56.832;60.658;2023-03-14T03:34:38;97497.34;;;4.33;88.76
42727;BME280;28372;56.832;60.658;2023-03-14T03:37:05;97507.72;;;4.35;89.10
42727;BME280;28372;56.832;60.658;2023-03-14T03:39:37;97502.81;;;4.37;87.99
42727;BME280;28372;56.832;60.658;2023-03-14T03:42:04;97510.84;;;4.37;88.05
42727;BME280;28372;56.832;60.658;2023-03-14T03:44:31;97507.41;;;4.36;87.98
42727;BME280;28372;56.832;60.658;2023-03-14T03:47:00;97509.41;;;4.39;87.84
42727;BME280;28372;56.832;60.658;2023-03-14T03:49:30;97518.66;;;4.42;87.38
42727;BME280;28372;56.832;60.658;2023-03-14T03:51:59;97511.06;;;4.44;87.37
42727;BME280;28372;56.832;60.658;2023-03-14T03:54:26;97522.88;;;4.43;87.37
42727;BME280;28372;56.832;60.658;2023-03-14T03:56:56;97524.09;;;4.45;86.09
42727;BME280;28372;56.832;60.658;2023-03-14T03:59:23;97524.31;;;4.40;85.48
42727;BME280;28372;56.832;60.658;2023-03-14T04:01:50;97523.75;;;4.47;85.56
42727;BME280;28372;56.832;60.658;2023-03-14T04:04:18;97529.59;;;4.49;84.74
42727;BME280;28372;56.832;60.658;2023-03-14T04:06:45;97535.03;;;4.40;84.72
42727;BME280;28372;56.832;60.658;2023-03-14T04:09:13;97533.50;;;4.39;83.46
42727;BME280;28372;56.832;60.658;2023-03-14T04:11:44;97542.75;;;4.42;84.60
42727;BME280;28372;56.832;60.658;2023-03-14T04:14:18;97555.13;;;4.46;85.13
42727;BME280;28372;56.832;60.658;2023-03-14T04:16:46;97559.25;;;4.44;85.05
42727;BME280;28372;56.832;60.658;2023-03-14T04:19:16;97567.28;;;4.44;85.24
42727;BME280;28372;56.832;60.658;2023-03-14T04:21:45;97575.75;;;4.46;85.60
42727;BME280;28372;56.832;60.658;2023-03-14T04:24:14;97571.53;;;4.45;85.90
42727;BME280;28372;56.832;60.658;2023-03-14T04:26:44;97578.44;;;4.46;86.68
42727;BME280;28372;56.832;60.658;2023-03-14T04:29:11;97579.22;;;4.46;87.21
42727;BME280;28372;56.832;60.658;2023-03-14T04:31:40;97588.84;;;4.48;86.20
42727;BME280;28372;56.832;60.658;2023-03-14T04:34:09;97588.94;;;4.51;87.17
42727;BME280;28372;56.832;60.658;2023-03-14T04:36:42;97582.91;;;4.54;86.77
42727;BME280;28372;56.832;60.658;2023-03-14T04:39:14;97589.16;;;4.58;83.50
42727;BME280;28372;56.832;60.658;2023-03-14T04:41:50;97599.75;;;4.67;78.88
42727;BME280;28372;56.832;60.658;2023-03-14T04:44:17;97611.69;;;4.70;78.98
42727;BME280;28372;56.832;60.658;2023-03-14T04:46:45;97605.34;;;4.74;77.07
42727;BME280;28372;56.832;60.658;2023-03-14T04:49:12;97610.44;;;4.79;79.33
42727;BME280;28372;56.832;60.658;2023-03-14T04:51:40;97618.59;;;4.83;81.92
42727;BME280;28372;56.832;60.658;2023-03-14T04:54:08;97620.38;;;4.79;84.74
42727;BME280;28372;56.832;60.658;2023-03-14T04:56:36;97618.81;;;4.78;86.80
42727;BME280;28372;56.832;60.658;2023-03-14T04:59:04;97624.63;;;4.80;87.21
42727;BME280;28372;56.832;60.658;2023-03-14T05:01:35;97614.81;;;4.84;87.69
42727;BME280;28372;56.832;60.658;2023-03-14T05:04:33;97628.28;;;4.88;87.46
42727;BME280;28372;56.832;60.658;2023-03-14T05:07:13;97632.66;;;4.92;86.88
42727;BME280;28372;56.832;60.658;2023-03-14T05:09:47;97637.78;;;4.97;87.22
42727;BME280;28372;56.832;60.658;2023-03-14T05:12:35;97641.34;;;5.02;86.13
42727;BME280;28372;56.832;60.658;2023-03-14T05:15:21;97647.69;;;5.09;86.72
42727;BME280;28372;56.832;60.658;2023-03-14T05:18:11;97644.13;;;5.18;84.09
42727;BME280;28372;56.832;60.658;2023-03-14T05:20:56;97663.84;;;5.25;80.67
42727;BME280;28372;56.832;60.658;2023-03-14T05:23:42;97666.66;;;5.29;81.96
42727;BME280;28372;56.832;60.658;2023-03-14T05:26:48;97661.50;;;5.36;81.56
42727;BME280;28372;56.832;60.658;2023-03-14T05:29:38;97659.25;;;5.38;82.20
42727;BME280;28372;56.832;60.658;2023-03-14T05:32:26;97668.63;;;5.44;81.85
42727;BME280;28372;56.832;60.658;2023-03-14T05:35:22;97669.94;;;5.51;81.39
42727;BME280;28372;56.832;60.658;2023-03-14T05:38:10;97670.94;;;5.58;82.60
42727;BME280;28372;56.832;60.658;2023-03-14T05:41:02;97674.47;;;5.62;82.16
42727;BME280;28372;56.832;60.658;2023-03-14T05:43:53;97683.84;;;5.69;80.65
42727;BME280;28372;56.832;60.658;2023-03-14T05:46:31;97677.78;;;5.72;79.42
42727;BME280;28372;56.832;60.658;2023-03-14T05:49:19;97685.06;;;5.71;78.14
42727;BME280;28372;56.832;60.658;2023-03-14T05:51:58;97684.56;;;5.81;73.57
42727;BME280;28372;56.832;60.658;2023-03-14T05:54:44;97687.59;;;5.80;72.54
42727;BME280;28372;56.832;60.658;2023-03-14T05:57:29;97684.03;;;5.76;73.63
42727;BME280;28372;56.832;60.658;2023-03-14T06:00:17;97701.25;;;5.75;73.16
42727;BME280;28372;56.832;60.658;2023-03-14T06:02:59;97690.13;;;5.60;74.85
42727;BME280;28372;56.832;60.658;2023-03-14T06:05:31;97699.84;;;5.65;74.29
42727;BME280;28372;56.832;60.658;2023-03-14T06:08:00;97694.72;;;5.60;75.67
42727;BME280;28372;56.832;60.658;2023-03-14T06:10:30;97693.50;;;5.57;76.62
42727;BME280;28372;56.832;60.658;2023-03-14T06:12:57;97711.59;;;5.60;76.63
42727;BME280;28372;56.832;60.658;2023-03-14T06:15:24;97714.28;;;5.60;76.48
42727;BME280;28372;56.832;60.658;2023-03-14T06:17:54;97717.72;;;5.61;77.04
42727;BME280;28372;56.832;60.658;2023-03-14T06:20:23;97708.38;;;5.55;77.73
42727;BME280;28372;56.832;60.658;2023-03-14T06:22:51;97700.88;;;5.60;77.81
42727;BME280;28372;56.832;60.658;2023-03-14T06:25:18;97700.88;;;5.60;77.16
42727;BME280;28372;56.832;60.658;2023-03-14T06:27:47;97706.66;;;5.62;76.49
42727;BME280;28372;56.832;60.658;2023-03-14T06:30:15;97707.47;;;5.63;76.59
42727;BME280;28372;56.832;60.658;2023-03-14T06:32:43;97713.94;;;5.62;77.68
42727;BME280;28372;56.832;60.658;2023-03-14T06:35:13;97723.22;;;5.64;77.64
42727;BME280;28372;56.832;60.658;2023-03-14T06:37:42;97718.41;;;5.58;76.06
42727;BME280;28372;56.832;60.658;2023-03-14T06:40:11;97726.13;;;5.59;74.88
42727;BME280;28372;56.832;60.658;2023-03-14T06:42:52;97733.97;;;5.52;74.21
42727;BME280;28372;56.832;60.658;2023-03-14T06:45:21;97726.94;;;5.60;74.97
42727;BME280;28372;56.832;60.658;2023-03-14T06:47:48;97734.50;;;5.58;76.92
42727;BME280;28372;56.832;60.658;2023-03-14T06:50:19;97730.72;;;5.59;78.10
42727;BME280;28372;56.832;60.658;2023-03-14T06:52:49;97736.16;;;5.62;78.70
42727;BME280;28372;56.832;60.658;2023-03-14T06:55:20;97736.75;;;5.68;78.00
42727;BME280;28372;56.832;60.658;2023-03-14T06:57:49;97734.16;;;5.72;79.06
42727;BME280;28372;56.832;60.658;2023-03-14T07:00:18;97744.19;;;5.75;78.68
42727;BME280;28372;56.832;60.658;2023-03-14T07:02:45;97748.22;;;5.81;78.91
42727;BME280;28372;56.832;60.658;2023-03-14T07:05:25;97753.66;;;5.84;81.38
42727;BME280;28372;56.832;60.658;2023-03-14T07:07:52;97752.44;;;5.82;83.16
42727;BME280;28372;56.832;60.658;2023-03-14T07:10:19;97756.00;;;5.86;82.64
42727;BME280;28372;56.832;60.658;2023-03-14T07:12:49;97760.91;;;5.96;82.84
42727;BME280;28372;56.832;60.658;2023-03-14T07:15:16;97758.44;;;6.04;81.90
42727;BME280;28372;56.832;60.658;2023-03-14T07:17:49;97758.63;;;6.11;82.34
42727;BME280;28372;56.832;60.658;2023-03-14T07:20:20;97767.34;;;6.20;84.15
42727;BME280;28372;56.832;60.658;2023-03-14T07:22:48;97760.16;;;6.24;83.22
42727;BME280;28372;56.832;60.658;2023-03-14T07:25:20;97759.66;;;6.34;80.67
42727;BME280;28372;56.832;60.658;2023-03-14T07:27:48;97768.59;;;6.39;77.71
42727;BME280;28372;56.832;60.658;2023-03-14T07:30:15;97768.06;;;6.49;78.11
42727;BME280;28372;56.832;60.658;2023-03-14T07:32:43;97775.44;;;6.52;77.92
42727;BME280;28372;56.832;60.658;2023-03-14T07:35:11;97766.78;;;6.59;76.07
42727;BME280;28372;56.832;60.658;2023-03-14T07:37:41;97771.91;;;6.64;74.51
42727;BME280;28372;56.832;60.658;2023-03-14T07:40:11;97774.31;;;6.69;74.31
42727;BME280;28372;56.832;60.658;2023-03-14T07:42:42;97774.44;;;6.73;73.47
42727;BME280;28372;56.832;60.658;2023-03-14T07:45:35;97779.38;;;6.71;70.90
42727;BME280;28372;56.832;60.658;2023-03-14T07:48:08;97773.66;;;6.72;72.76
42727;BME280;28372;56.832;60.658;2023-03-14T07:50:35;97778.59;;;6.70;68.95
42727;BME280;28372;56.832;60.658;2023-03-14T07:53:03;97780.84;;;6.68;70.51
42727;BME280;28372;56.832;60.658;2023-03-14T07:55:30;97787.09;;;6.72;73.66
42727;BME280;28372;56.832;60.658;2023-03-14T07:57:57;97780.56;;;6.73;76.73
42727;BME280;28372;56.832;60.658;2023-03-14T08:00:25;97790.31;;;6.78;79.16
42727;BME280;28372;56.832;60.658;2023-03-14T08:02:52;97787.28;;;6.79;81.56
42727;BME280;28372;56.832;60.658;2023-03-14T08:05:20;97787.44;;;6.71;69.06
42727;BME280;28372;56.832;60.658;2023-03-14T08:07:47;97783.47;;;6.80;76.17
42727;BME280;28372;56.832;60.658;2023-03-14T08:10:14;97789.38;;;6.86;81.15
42727;BME280;28372;56.832;60.658;2023-03-14T08:12:49;97788.66;;;6.89;78.21
42727;BME280;28372;56.832;60.658;2023-03-14T08:15:16;97795.69;;;6.94;81.50
42727;BME280;28372;56.832;60.658;2023-03-14T08:17:44;97797.69;;;6.97;75.69
42727;BME280;28372;56.832;60.658;2023-03-14T08:20:11;97798.81;;;6.96;69.88
42727;BME280;28372;56.832;60.658;2023-03-14T08:22:40;97791.06;;;6.94;64.21
42727;BME280;28372;56.832;60.658;2023-03-14T08:25:07;97807.84;;;7.03;68.45
42727;BME280;28372;56.832;60.658;2023-03-14T08:27:35;97807.56;;;7.09;69.39
42727;BME280;28372;56.832;60.658;2023-03-14T08:30:05;97811.31;;;7.20;66.24
42727;BME280;28372;56.832;60.658;2023-03-14T08:32:32;97814.84;;;7.24;54.92
42727;BME280;28372;56.832;60.658;2023-03-14T08:35:00;97819.69;;;7.34;52.06
42727;BME280;28372;56.832;60.658;2023-03-14T08:37:28;97819.88;;;7.42;51.21
42727;BME280;28372;56.832;60.658;2023-03-14T08:39:57;97812.28;;;7.47;51.18
42727;BME280;28372;56.832;60.658;2023-03-14T08:42:25;97813.25;;;7.55;50.38
42727;BME280;28372;56.832;60.658;2023-03-14T08:44:52;97827.13;;;7.57;49.09
42727;BME280;28372;56.832;60.658;2023-03-14T08:47:19;97818.53;;;7.67;51.90
42727;BME280;28372;56.832;60.658;2023-03-14T08:49:47;97822.00;;;7.68;46.84
42727;BME280;28372;56.832;60.658;2023-03-14T08:52:14;97821.72;;;7.73;46.89
42727;BME280;28372;56.832;60.658;2023-03-14T08:54:43;97827.63;;;7.79;48.29
42727;BME280;28372;56.832;60.658;2023-03-14T08:57:11;97823.72;;;7.76;47.01
42727;BME280;28372;56.832;60.658;2023-03-14T08:59:38;97823.78;;;7.80;49.67
42727;BME280;28372;56.832;60.658;2023-03-14T09:02:05;97833.16;;;7.86;48.58
42727;BME280;28372;56.832;60.658;2023-03-14T09:04:33;97821.59;;;7.85;47.01
42727;BME280;28372;56.832;60.658;2023-03-14T09:07:00;97826.66;;;7.87;48.27
42727;BME280;28372;56.832;60.658;2023-03-14T09:09:28;97839.59;;;8.01;50.57
42727;BME280;28372;56.832;60.658;2023-03-14T09:11:55;97840.03;;;8.03;48.13
42727;BME280;28372;56.832;60.658;2023-03-14T09:14:22;97843.81;;;7.98;44.57
42727;BME280;28372;56.832;60.658;2023-03-14T09:16:50;97845.84;;;8.05;45.76
42727;BME280;28372;56.832;60.658;2023-03-14T09:19:17;97842.88;;;8.10;47.70
42727;BME280;28372;56.832;60.658;2023-03-14T09:21:45;97842.53;;;8.12;47.72
42727;BME280;28372;56.832;60.658;2023-03-14T09:24:12;97842.53;;;8.12;43.37
42727;BME280;28372;56.832;60.658;2023-03-14T09:26:39;97838.63;;;8.09;44.84
42727;BME280;28372;56.832;60.658;2023-03-14T09:29:07;97836.91;;;8.20;47.64
42727;BME280;28372;56.832;60.658;2023-03-14T09:31:34;97840.56;;;8.28;49.00
42727;BME280;28372;56.832;60.658;2023-03-14T09:34:02;97838.34;;;8.34;50.38
42727;BME280;28372;56.832;60.658;2023-03-14T09:36:29;97835.56;;;8.30;47.55
42727;BME280;28372;56.832;60.658;2023-03-14T09:38:57;97835.75;;;8.37;47.83
42727;BME280;28372;56.832;60.658;2023-03-14T09:41:25;97844.00;;;8.45;47.30
42727;BME280;28372;56.832;60.658;2023-03-14T09:43:57;97846.75;;;8.48;45.73
42727;BME280;28372;56.832;60.658;2023-03-14T09:46:28;97842.19;;;8.52;47.86
42727;BME280;28372;56.832;60.658;2023-03-14T09:48:56;97845.34;;;8.54;45.47
42727;BME280;28372;56.832;60.658;2023-03-14T09:51:23;97848.44;;;8.56;44.40
42727;BME280;28372;56.832;60.658;2023-03-14T09:53:51;97842.28;;;8.56;47.54
42727;BME280;28372;56.832;60.658;2023-03-14T09:56:26;97848.22;;;8.65;45.86
42727;BME280;28372;56.832;60.658;2023-03-14T09:58:56;97844.63;;;8.57;44.39
42727;BME280;28372;56.832;60.658;2023-03-14T10:01:28;97853.56;;;8.62;43.34
42727;BME280;28372;56.832;60.658;2023-03-14T10:04:06;97851.63;;;8.62;45.35
42727;BME280;28372;56.832;60.658;2023-03-14T10:06:37;97855.44;;;8.61;46.09
42727;BME280;28372;56.832;60.658;2023-03-14T10:09:04;97853.19;;;8.63;45.67
42727;BME280;28372;56.832;60.658;2023-03-14T10:11:32;97866.72;;;8.67;46.15
42727;BME280;28372;56.832;60.658;2023-03-14T10:14:07;97854.75;;;8.64;46.39
42727;BME280;28372;56.832;60.658;2023-03-14T10:16:44;97856.78;;;8.71;47.79
42727;BME280;28372;56.832;60.658;2023-03-14T10:19:13;97876.22;;;8.80;47.47
42727;BME280;28372;56.832;60.658;2023-03-14T10:21:41;97857.28;;;8.77;45.41
42727;BME280;28372;56.832;60.658;2023-03-14T10:24:10;97847.66;;;8.76;41.91
42727;BME280;28372;56.832;60.658;2023-03-14T10:26:47;97863.50;;;8.81;44.99
42727;BME280;28372;56.832;60.658;2023-03-14T10:29:14;97849.75;;;8.86;46.22
42727;BME280;28372;56.832;60.658;2023-03-14T10:31:49;97860.66;;;8.93;45.77
42727;BME280;28372;56.832;60.658;2023-03-14T10:34:21;97863.44;;;8.97;44.19
42727;BME280;28372;56.832;60.658;2023-03-14T10:36:52;97858.94;;;9.04;42.86
42727;BME280;28372;56.832;60.658;2023-03-14T10:39:25;97862.81;;;9.07;41.69
42727;BME280;28372;56.832;60.658;2023-03-14T10:42:04;97861.75;;;9.12;41.99
42727;BME280;28372;56.832;60.658;2023-03-14T10:44:32;97864.31;;;9.04;39.91
42727;BME280;28372;56.832;60.658;2023-03-14T10:47:02;97866.28;;;9.07;44.08
42727;BME280;28372;56.832;60.658;2023-03-14T10:49:31;97870.88;;;9.03;42.89
42727;BME280;28372;56.832;60.658;2023-03-14T10:52:12;97865.41;;;9.00;39.28
42727;BME280;28372;56.832;60.658;2023-03-14T10:54:40;97857.91;;;8.89;45.00
42727;BME280;28372;56.832;60.658;2023-03-14T10:57:08;97871.00;;;9.11;45.37
42727;BME280;28372;56.832;60.658;2023-03-14T10:59:36;97874.53;;;9.15;45.14
42727;BME280;28372;56.832;60.658;2023-03-14T11:07:41;97886.00;;;8.88;47.18
42727;BME280;28372;56.832;60.658;2023-03-14T11:10:14;97880.97;;;8.87;46.97
42727;BME280;28372;56.832;60.658;2023-03-14T11:20:29;97892.09;;;8.27;42.70
42727;BME280;28372;56.832;60.658;2023-03-14T11:22:59;97889.88;;;8.13;42.53
42727;BME280;28372;56.832;60.658;2023-03-14T11:25:32;97900.66;;;8.13;43.88
42727;BME280;28372;56.832;60.658;2023-03-14T11:33:49;97893.81;;;7.99;46.22
42727;BME280;28372;56.832;60.658;2023-03-14T11:41:10;97902.75;;;7.36;42.31
42727;BME280;28372;56.832;60.658;2023-03-14T11:43:41;97908.66;;;7.42;44.54
42727;BME280;28372;56.832;60.658;2023-03-14T11:46:10;97903.34;;;7.29;44.46
42727;BME280;28372;56.832;60.658;2023-03-14T11:48:45;97917.44;;;7.38;45.59
42727;BME280;28372;56.832;60.658;2023-03-14T11:51:35;97913.34;;;7.29;48.11
42727;BME280;28372;56.832;60.658;2023-03-14T11:57:23;97920.03;;;7.19;46.95
42727;BME280;28372;56.832;60.658;2023-03-14T11:59:49;97919.06;;;7.11;45.69
42727;BME280;28372;56.832;60.658;2023-03-14T12:07:34;97922.44;;;6.80;47.85
42727;BME280;28372;56.832;60.658;2023-03-14T12:10:05;97925.06;;;6.76;45.72
42727;BME280;28372;56.832;60.658;2023-03-14T12:12:32;97931.03;;;6.69;46.20
42727;BME280;28372;56.832;60.658;2023-03-14T12:15:01;97924.44;;;6.55;46.05
42727;BME280;28372;56.832;60.658;2023-03-14T12:17:39;97926.94;;;6.47;45.94
42727;BME280;28372;56.832;60.658;2023-03-14T12:20:20;97931.09;;;6.32;43.77
42727;BME280;28372;56.832;60.658;2023-03-14T12:23:22;97934.72;;;6.24;46.53
42727;BME280;28372;56.832;60.658;2023-03-14T12:25:43;97931.03;;;6.29;46.28
42727;BME280;28372;56.832;60.658;2023-03-14T12:28:21;97924.00;;;6.24;47.16
42727;BME280;28372;56.832;60.658;2023-03-14T12:30:49;97935.06;;;6.23;47.38
42727;BME280;28372;56.832;60.658;2023-03-14T12:33:26;97927.25;;;6.17;45.97
42727;BME280;28372;56.832;60.658;2023-03-14T12:35:58;97923.22;;;6.11;48.24
42727;BME280;28372;56.832;60.658;2023-03-14T12:43:45;97935.28;;;5.80;46.38
42727;BME280;28372;56.832;60.658;2023-03-14T12:48:40;97939.53;;;5.57;43.01
42727;BME280;28372;56.832;60.658;2023-03-14T12:51:18;97950.81;;;5.62;44.48
42727;BME280;28372;56.832;60.658;2023-03-14T12:53:52;97941.44;;;5.56;44.15
42727;BME280;28372;56.832;60.658;2023-03-14T12:59:14;97951.34;;;5.31;43.96
42727;BME280;28372;56.832;60.658;2023-03-14T13:01:47;97949.56;;;5.35;46.59
42727;BME280;28372;56.832;60.658;2023-03-14T13:04:15;97957.94;;;5.34;45.66
42727;BME280;28372;56.832;60.658;2023-03-14T13:06:52;97960.16;;;5.31;46.77
42727;BME280;28372;56.832;60.658;2023-03-14T13:11:53;97966.16;;;5.16;43.17
42727;BME280;28372;56.832;60.658;2023-03-14T13:14:21;97953.41;;;5.13;46.04
42727;BME280;28372;56.832;60.658;2023-03-14T13:16:49;97966.72;;;5.09;45.19
42727;BME280;28372;56.832;60.658;2023-03-14T13:19:18;97966.59;;;5.06;45.16
42727;BME280;28372;56.832;60.658;2023-03-14T13:21:47;97968.56;;;4.96;44.77
42727;BME280;28372;56.832;60.658;2023-03-14T13:24:22;97970.75;;;4.82;44.24
42727;BME280;28372;56.832;60.658;2023-03-14T13:26:51;97963.97;;;4.63;41.55
42727;BME280;28372;56.832;60.658;2023-03-14T13:29:20;97972.72;;;4.73;43.97
42727;BME280;28372;56.832;60.658;2023-03-14T13:31:50;97978.28;;;4.68;44.61
42727;BME280;28372;56.832;60.658;2023-03-14T13:34:17;97988.22;;;4.67;43.82
42727;BME280;28372;56.832;60.658;2023-03-14T13:36:45;97990.22;;;4.70;43.59
42727;BME280;28372;56.832;60.658;2023-03-14T13:39:17;97997.88;;;4.59;42.96
42727;BME280;28372;56.832;60.658;2023-03-14T13:41:46;97999.22;;;4.44;46.25
42727;BME280;28372;56.832;60.658;2023-03-14T13:44:16;98001.06;;;4.53;45.78
42727;BME280;28372;56.832;60.658;2023-03-14T13:46:44;98000.63;;;4.51;46.41
42727;BME280;28372;56.832;60.658;2023-03-14T13:49:12;98004.63;;;4.36;43.47
42727;BME280;28372;56.832;60.658;2023-03-14T13:51:43;98004.03;;;4.30;45.63
42727;BME280;28372;56.832;60.658;2023-03-14T13:54:14;98018.88;;;4.27;46.27
42727;BME280;28372;56.832;60.658;2023-03-14T13:56:42;98010.88;;;4.19;45.62
42727;BME280;28372;56.832;60.658;2023-03-14T14:01:49;98018.22;;;4.01;43.12
42727;BME280;28372;56.832;60.658;2023-03-14T14:04:18;98031.00;;;3.95;41.69
42727;BME280;28372;56.832;60.658;2023-03-14T14:07:01;98023.94;;;3.90;45.73
42727;BME280;28372;56.832;60.658;2023-03-14T14:09:40;98020.66;;;3.85;45.59
42727;BME280;28372;56.832;60.658;2023-03-14T14:12:17;98031.03;;;3.86;44.85